sensor_id;sensor_type;location;lat;lon;timestamp;pressure;altitude;pressure_sealevel;temperature;humidity
70684;BME280;58263;48.146;11.440;2023-06-10T00:01:47;95253.03;;;18.46;54.64
70684;BME280;58263;48.146;11.440;2023-06-10T00:04:14;95249.81;;;18.44;55.21
70684;BME280;58263;48.146;11.440;2023-06-10T00:06:40;95252.59;;;18.38;55.17
70684;BME280;58263;48.146;11.440;2023-06-10T00:09:06;95255.69;;;18.32;55.08
70684;BME280;58263;48.146;11.440;2023-06-10T00:11:38;95256.28;;;18.29;54.89
70684;BME280;58263;48.146;11.440;2023-06-10T00:14:04;95261.75;;;18.23;55.14
70684;BME280;58263;48.146;11.440;2023-06-10T00:16:29;95254.50;;;18.19;54.88
70684;BME280;58263;48.146;11.440;2023-06-10T00:18:55;95252.63;;;18.14;55.13
70684;BME280;58263;48.146;11.440;2023-06-10T00:21:32;95256.59;;;18.03;55.21
70684;BME280;58263;48.146;11.440;2023-06-10T00:24:08;95250.13;;;17.99;55.22
70684;BME280;58263;48.146;11.440;2023-06-10T00:26:37;95255.91;;;17.92;55.65
70684;BME280;58263;48.146;11.440;2023-06-10T00:29:03;95269.50;;;17.87;55.79
70684;BME280;58263;48.146;11.440;2023-06-10T00:31:28;95260.84;;;17.85;55.81
70684;BME280;58263;48.146;11.440;2023-06-10T00:33:53;95264.94;;;17.82;56.16
70684;BME280;58263;48.146;11.440;2023-06-10T00:36:19;95259.81;;;17.81;56.60
70684;BME280;58263;48.146;11.440;2023-06-10T00:38:44;95263.19;;;17.67;56.26
70684;BME280;58263;48.146;11.440;2023-06-10T00:41:10;95263.78;;;17.64;56.58
70684;BME280;58263;48.146;11.440;2023-06-10T00:43:35;95264.63;;;17.60;57.18
70684;BME280;58263;48.146;11.440;2023-06-10T00:46:01;95265.66;;;17.64;56.96
70684;BME280;58263;48.146;11.440;2023-06-10T00:48:27;95263.28;;;17.57;57.59
70684;BME280;58263;48.146;11.440;2023-06-10T00:50:52;95265.22;;;17.56;57.47
70684;BME280;58263;48.146;11.440;2023-06-10T00:53:18;95274.19;;;17.52;57.49
70684;BME280;58263;48.146;11.440;2023-06-10T00:55:44;95263.06;;;17.53;57.48
70684;BME280;58263;48.146;11.440;2023-06-10T00:58:10;95270.63;;;17.56;57.62
70684;BME280;58263;48.146;11.440;2023-06-10T01:00:35;95274.53;;;17.45;58.44
70684;BME280;58263;48.146;11.440;2023-06-10T01:03:01;95278.34;;;17.44;58.48
70684;BME280;58263;48.146;11.440;2023-06-10T01:05:26;95274.25;;;17.47;58.53
70684;BME280;58263;48.146;11.440;2023-06-10T01:08:07;95272.34;;;17.47;58.62
70684;BME280;58263;48.146;11.440;2023-06-10T01:10:41;95273.22;;;17.43;58.57
70684;BME280;58263;48.146;11.440;2023-06-10T01:13:09;95264.38;;;17.32;58.65
70684;BME280;58263;48.146;11.440;2023-06-10T01:15:37;95272.25;;;17.28;58.84
70684;BME280;58263;48.146;11.440;2023-06-10T01:18:05;95275.75;;;17.29;58.87
70684;BME280;58263;48.146;11.440;2023-06-10T01:20:34;95278.53;;;17.23;59.03
70684;BME280;58263;48.146;11.440;2023-06-10T01:23:01;95273.44;;;17.17;59.67
70684;BME280;58263;48.146;11.440;2023-06-10T01:25:28;95276.25;;;17.01;60.02
70684;BME280;58263;48.146;11.440;2023-06-10T01:28:13;95290.03;;;17.10;59.88
70684;BME280;58263;48.146;11.440;2023-06-10T01:30:56;95281.63;;;17.06;59.85
70684;BME280;58263;48.146;11.440;2023-06-10T01:33:28;95282.53;;;16.97;60.21
70684;BME280;58263;48.146;11.440;2023-06-10T01:35:53;95282.56;;;16.92;60.26
70684;BME280;58263;48.146;11.440;2023-06-10T01:38:21;95285.84;;;16.83;60.68
70684;BME280;58263;48.146;11.440;2023-06-10T01:40:48;95285.03;;;16.83;60.77
70684;BME280;58263;48.146;11.440;2023-06-10T01:43:14;95286.97;;;16.77;60.98
70684;BME280;58263;48.146;11.440;2023-06-10T01:45:39;95282.09;;;16.74;61.34
70684;BME280;58263;48.146;11.440;2023-06-10T01:48:05;95284.00;;;16.73;61.75
70684;BME280;58263;48.146;11.440;2023-06-10T01:50:30;95276.69;;;16.74;60.94
70684;BME280;58263;48.146;11.440;2023-06-10T01:52:57;95284.59;;;16.70;61.39
70684;BME280;58263;48.146;11.440;2023-06-10T01:55:23;95289.47;;;16.68;61.73
70684;BME280;58263;48.146;11.440;2023-06-10T01:57:48;95293.59;;;16.61;61.47
70684;BME280;58263;48.146;11.440;2023-06-10T02:00:14;95287.09;;;16.56;61.79
70684;BME280;58263;48.146;11.440;2023-06-10T02:02:39;95283.84;;;16.54;62.15
70684;BME280;58263;48.146;11.440;2023-06-10T02:05:05;95292.00;;;16.49;62.47
70684;BME280;58263;48.146;11.440;2023-06-10T02:07:30;95282.03;;;16.45;62.59
70684;BME280;58263;48.146;11.440;2023-06-10T02:09:55;95287.19;;;16.36;63.36
70684;BME280;58263;48.146;11.440;2023-06-10T02:12:21;95278.78;;;16.43;63.09
70684;BME280;58263;48.146;11.440;2023-06-10T02:14:46;95288.75;;;16.52;62.60
70684;BME280;58263;48.146;11.440;2023-06-10T02:17:11;95284.72;;;16.50;62.84
70684;BME280;58263;48.146;11.440;2023-06-10T02:19:38;95289.06;;;16.46;63.28
70684;BME280;58263;48.146;11.440;2023-06-10T02:22:07;95292.56;;;16.46;63.29
70684;BME280;58263;48.146;11.440;2023-06-10T02:24:33;95285.53;;;16.45;63.30
70684;BME280;58263;48.146;11.440;2023-06-10T02:26:58;95285.00;;;16.43;63.45
70684;BME280;58263;48.146;11.440;2023-06-10T02:29:25;95280.97;;;16.35;63.51
70684;BME280;58263;48.146;11.440;2023-06-10T02:31:51;95276.94;;;16.33;64.20
70684;BME280;58263;48.146;11.440;2023-06-10T02:34:18;95281.53;;;16.32;63.47
70684;BME280;58263;48.146;11.440;2023-06-10T02:36:43;95285.06;;;16.28;63.83
70684;BME280;58263;48.146;11.440;2023-06-10T02:39:09;95274.81;;;16.25;64.26
70684;BME280;58263;48.146;11.440;2023-06-10T02:41:34;95287.53;;;16.24;64.34
70684;BME280;58263;48.146;11.440;2023-06-10T02:44:00;95289.47;;;16.18;64.70
70684;BME280;58263;48.146;11.440;2023-06-10T02:46:26;95284.88;;;16.14;65.04
70684;BME280;58263;48.146;11.440;2023-06-10T02:48:51;95287.06;;;16.12;65.03
70684;BME280;58263;48.146;11.440;2023-06-10T02:51:17;95286.22;;;16.11;65.02
70684;BME280;58263;48.146;11.440;2023-06-10T02:53:42;95286.53;;;16.04;64.73
70684;BME280;58263;48.146;11.440;2023-06-10T02:56:08;95287.88;;;16.02;64.87
70684;BME280;58263;48.146;11.440;2023-06-10T02:58:33;95289.00;;;16.01;64.83
70684;BME280;58263;48.146;11.440;2023-06-10T03:00:58;95289.78;;;16.01;65.35
70684;BME280;58263;48.146;11.440;2023-06-10T03:03:24;95289.00;;;15.96;65.41
70684;BME280;58263;48.146;11.440;2023-06-10T03:05:50;95288.72;;;15.92;65.91
70684;BME280;58263;48.146;11.440;2023-06-10T03:08:16;95289.56;;;15.93;65.64
70684;BME280;58263;48.146;11.440;2023-06-10T03:10:41;95291.72;;;15.85;66.14
70684;BME280;58263;48.146;11.440;2023-06-10T03:13:06;95294.47;;;15.80;65.63
70684;BME280;58263;48.146;11.440;2023-06-10T03:15:32;95300.41;;;15.82;66.20
70684;BME280;58263;48.146;11.440;2023-06-10T03:17:59;95308.00;;;15.80;66.19
70684;BME280;58263;48.146;11.440;2023-06-10T03:20:25;95303.63;;;15.74;66.14
70684;BME280;58263;48.146;11.440;2023-06-10T03:22:53;95302.59;;;15.80;66.46
70684;BME280;58263;48.146;11.440;2023-06-10T03:25:18;95304.19;;;15.76;66.58
70684;BME280;58263;48.146;11.440;2023-06-10T03:27:46;95308.50;;;15.77;66.35
70684;BME280;58263;48.146;11.440;2023-06-10T03:30:12;95312.84;;;15.83;66.13
70684;BME280;58263;48.146;11.440;2023-06-10T03:32:38;95316.91;;;15.81;66.35
70684;BME280;58263;48.146;11.440;2023-06-10T03:35:03;95314.72;;;15.78;66.25
70684;BME280;58263;48.146;11.440;2023-06-10T03:37:29;95322.00;;;15.77;66.77
70684;BME280;58263;48.146;11.440;2023-06-10T03:39:54;95323.13;;;15.71;66.61
70684;BME280;58263;48.146;11.440;2023-06-10T03:42:19;95323.63;;;15.73;67.14
70684;BME280;58263;48.146;11.440;2023-06-10T03:44:45;95320.41;;;15.71;66.78
70684;BME280;58263;48.146;11.440;2023-06-10T03:47:10;95328.53;;;15.71;66.73
70684;BME280;58263;48.146;11.440;2023-06-10T03:49:35;95329.59;;;15.70;66.96
70684;BME280;58263;48.146;11.440;2023-06-10T03:52:01;95327.44;;;15.67;67.13
70684;BME280;58263;48.146;11.440;2023-06-10T03:54:27;95330.97;;;15.67;67.05
70684;BME280;58263;48.146;11.440;2023-06-10T03:56:52;95330.41;;;15.70;67.35
70684;BME280;58263;48.146;11.440;2023-06-10T03:59:17;95332.59;;;15.74;67.38
70684;BME280;58263;48.146;11.440;2023-06-10T04:01:42;95338.53;;;15.81;67.42
70684;BME280;58263;48.146;11.440;2023-06-10T04:04:09;95342.31;;;15.85;67.31
70684;BME280;58263;48.146;11.440;2023-06-10T04:06:34;95345.56;;;15.87;67.16
70684;BME280;58263;48.146;11.440;2023-06-10T04:08:59;95338.25;;;15.87;67.28
70684;BME280;58263;48.146;11.440;2023-06-10T04:11:25;95336.34;;;15.88;67.01
70684;BME280;58263;48.146;11.440;2023-06-10T04:13:50;95341.47;;;15.89;67.38
70684;BME280;58263;48.146;11.440;2023-06-10T04:16:15;95343.63;;;15.98;67.10
70684;BME280;58263;48.146;11.440;2023-06-10T04:18:41;95342.53;;;15.99;67.43
70684;BME280;58263;48.146;11.440;2023-06-10T04:21:07;95341.47;;;16.05;67.33
70684;BME280;58263;48.146;11.440;2023-06-10T04:23:34;95337.41;;;16.02;67.07
70684;BME280;58263;48.146;11.440;2023-06-10T04:25:59;95347.94;;;16.09;67.15
70684;BME280;58263;48.146;11.440;2023-06-10T04:28:25;95349.00;;;16.13;67.25
70684;BME280;58263;48.146;11.440;2023-06-10T04:30:50;95352.78;;;16.12;66.90
70684;BME280;58263;48.146;11.440;2023-06-10T04:33:15;95353.88;;;16.16;67.18
70684;BME280;58263;48.146;11.440;2023-06-10T04:35:41;95351.66;;;16.23;67.71
70684;BME280;58263;48.146;11.440;2023-06-10T04:38:07;95361.41;;;16.30;67.45
70684;BME280;58263;48.146;11.440;2023-06-10T04:40:32;95352.16;;;16.36;67.21
70684;BME280;58263;48.146;11.440;2023-06-10T04:42:58;95356.47;;;16.42;67.85
70684;BME280;58263;48.146;11.440;2023-06-10T04:45:23;95355.91;;;16.45;67.45
70684;BME280;58263;48.146;11.440;2023-06-10T04:47:48;95365.34;;;16.58;66.94
70684;BME280;58263;48.146;11.440;2023-06-10T04:50:13;95359.09;;;16.63;66.73
70684;BME280;58263;48.146;11.440;2023-06-10T04:52:39;95364.50;;;16.68;67.17
70684;BME280;58263;48.146;11.440;2023-06-10T04:55:06;95359.56;;;16.75;66.94
70684;BME280;58263;48.146;11.440;2023-06-10T04:57:32;95356.28;;;16.83;67.16
70684;BME280;58263;48.146;11.440;2023-06-10T04:59:57;95357.34;;;16.93;66.14
70684;BME280;58263;48.146;11.440;2023-06-10T05:02:22;95358.59;;;17.05;66.08
70684;BME280;58263;48.146;11.440;2023-06-10T05:04:48;95361.81;;;17.13;65.79
70684;BME280;58263;48.146;11.440;2023-06-10T05:07:13;95362.84;;;17.22;65.17
70684;BME280;58263;48.146;11.440;2023-06-10T05:09:38;95366.06;;;17.24;65.60
70684;BME280;58263;48.146;11.440;2023-06-10T05:12:04;95370.56;;;17.39;65.05
70684;BME280;58263;48.146;11.440;2023-06-10T05:14:30;95372.09;;;17.50;64.89
70684;BME280;58263;48.146;11.440;2023-06-10T05:16:56;95366.88;;;17.59;65.10
70684;BME280;58263;48.146;11.440;2023-06-10T05:19:22;95368.16;;;17.67;64.44
70684;BME280;58263;48.146;11.440;2023-06-10T05:21:47;95364.81;;;17.75;64.40
70684;BME280;58263;48.146;11.440;2023-06-10T05:24:13;95361.75;;;17.87;63.74
70684;BME280;58263;48.146;11.440;2023-06-10T05:26:38;95368.50;;;17.95;63.63
70684;BME280;58263;48.146;11.440;2023-06-10T05:29:05;95368.63;;;18.08;63.32
70684;BME280;58263;48.146;11.440;2023-06-10T05:31:30;95369.78;;;18.27;63.24
70684;BME280;58263;48.146;11.440;2023-06-10T05:33:56;95369.63;;;18.42;62.70
70684;BME280;58263;48.146;11.440;2023-06-10T05:36:21;95373.38;;;18.46;62.93
70684;BME280;58263;48.146;11.440;2023-06-10T05:38:46;95362.81;;;18.64;61.85
70684;BME280;58263;48.146;11.440;2023-06-10T05:41:12;95366.97;;;18.80;62.01
70684;BME280;58263;48.146;11.440;2023-06-10T05:43:37;95358.63;;;18.96;61.31
70684;BME280;58263;48.146;11.440;2023-06-10T05:46:03;95366.13;;;19.04;61.07
70684;BME280;58263;48.146;11.440;2023-06-10T05:48:28;95362.59;;;19.22;60.74
70684;BME280;58263;48.146;11.440;2023-06-10T05:50:53;95358.63;;;19.34;60.53
70684;BME280;58263;48.146;11.440;2023-06-10T05:53:19;95360.34;;;19.43;60.44
70684;BME280;58263;48.146;11.440;2023-06-10T05:55:45;95363.19;;;19.52;60.04
70684;BME280;58263;48.146;11.440;2023-06-10T05:58:11;95369.91;;;19.74;59.73
70684;BME280;58263;48.146;11.440;2023-06-10T06:00:40;95371.41;;;19.85;59.49
70684;BME280;58263;48.146;11.440;2023-06-10T06:03:07;95374.88;;;20.05;58.65
70684;BME280;58263;48.146;11.440;2023-06-10T06:05:36;95366.31;;;20.25;57.99
70684;BME280;58263;48.146;11.440;2023-06-10T06:08:05;95374.41;;;20.44;57.74
70684;BME280;58263;48.146;11.440;2023-06-10T06:10:31;95372.38;;;20.50;57.58
70684;BME280;58263;48.146;11.440;2023-06-10T06:12:56;95373.78;;;20.62;56.68
70684;BME280;58263;48.146;11.440;2023-06-10T06:15:22;95372.78;;;20.85;56.64
70684;BME280;58263;48.146;11.440;2023-06-10T06:17:48;95369.72;;;21.01;55.94
70684;BME280;58263;48.146;11.440;2023-06-10T06:20:13;95366.25;;;21.23;55.11
70684;BME280;58263;48.146;11.440;2023-06-10T06:22:38;95373.13;;;21.43;54.86
70684;BME280;58263;48.146;11.440;2023-06-10T06:25:04;95367.34;;;21.58;54.96
70684;BME280;58263;48.146;11.440;2023-06-10T06:27:30;95376.13;;;21.78;54.55
70684;BME280;58263;48.146;11.440;2023-06-10T06:29:56;95375.56;;;21.90;53.63
70684;BME280;58263;48.146;11.440;2023-06-10T06:32:21;95371.41;;;21.92;53.78
70684;BME280;58263;48.146;11.440;2023-06-10T06:34:48;95372.47;;;22.14;53.87
70684;BME280;58263;48.146;11.440;2023-06-10T06:37:14;95372.75;;;22.04;53.03
70684;BME280;58263;48.146;11.440;2023-06-10T06:39:40;95383.94;;;21.93;53.21
70684;BME280;58263;48.146;11.440;2023-06-10T06:42:05;95376.81;;;21.84;52.92
70684;BME280;58263;48.146;11.440;2023-06-10T06:44:31;95382.47;;;21.87;53.19
70684;BME280;58263;48.146;11.440;2023-06-10T06:46:56;95375.38;;;22.09;52.66
70684;BME280;58263;48.146;11.440;2023-06-10T06:49:21;95372.78;;;22.35;52.45
70684;BME280;58263;48.146;11.440;2023-06-10T06:51:46;95378.66;;;22.60;52.23
70684;BME280;58263;48.146;11.440;2023-06-10T06:54:12;95381.91;;;22.79;51.71
70684;BME280;58263;48.146;11.440;2023-06-10T06:56:37;95380.47;;;22.82;51.16
70684;BME280;58263;48.146;11.440;2023-06-10T06:59:03;95381.50;;;23.04;50.97
70684;BME280;58263;48.146;11.440;2023-06-10T07:01:29;95376.53;;;23.15;50.27
70684;BME280;58263;48.146;11.440;2023-06-10T07:03:55;95381.53;;;23.30;49.96
70684;BME280;58263;48.146;11.440;2023-06-10T07:06:20;95379.94;;;23.55;49.71
70684;BME280;58263;48.146;11.440;2023-06-10T07:08:45;95381.88;;;23.63;49.18
70684;BME280;58263;48.146;11.440;2023-06-10T07:11:10;95384.28;;;23.65;48.91
70684;BME280;58263;48.146;11.440;2023-06-10T07:13:36;95383.16;;;23.92;48.84
70684;BME280;58263;48.146;11.440;2023-06-10T07:16:01;95382.81;;;24.03;47.25
70684;BME280;58263;48.146;11.440;2023-06-10T07:18:26;95391.13;;;24.24;47.00
70684;BME280;58263;48.146;11.440;2023-06-10T07:20:52;95393.06;;;24.23;46.56
70684;BME280;58263;48.146;11.440;2023-06-10T07:23:17;95390.25;;;24.50;45.96
70684;BME280;58263;48.146;11.440;2023-06-10T07:25:42;95384.38;;;24.69;46.13
70684;BME280;58263;48.146;11.440;2023-06-10T07:28:08;95382.84;;;24.80;45.39
70684;BME280;58263;48.146;11.440;2023-06-10T07:30:33;95391.22;;;24.92;44.94
70684;BME280;58263;48.146;11.440;2023-06-10T07:32:58;95388.41;;;25.01;45.08
70684;BME280;58263;48.146;11.440;2023-06-10T07:35:24;95389.22;;;25.23;44.81
70684;BME280;58263;48.146;11.440;2023-06-10T07:37:50;95386.06;;;25.42;44.24
70684;BME280;58263;48.146;11.440;2023-06-10T07:40:15;95385.19;;;25.50;43.54
70684;BME280;58263;48.146;11.440;2023-06-10T07:42:40;95388.06;;;25.54;43.33
70684;BME280;58263;48.146;11.440;2023-06-10T07:45:07;95379.00;;;25.74;43.23
70684;BME280;58263;48.146;11.440;2023-06-10T07:47:33;95384.00;;;25.93;42.18
70684;BME280;58263;48.146;11.440;2023-06-10T07:49:59;95376.69;;;25.97;42.08
70684;BME280;58263;48.146;11.440;2023-06-10T07:52:24;95384.31;;;26.13;41.76
70684;BME280;58263;48.146;11.440;2023-06-10T07:54:51;95377.34;;;26.28;40.00
70684;BME280;58263;48.146;11.440;2023-06-10T07:57:17;95376.59;;;26.52;39.98
70684;BME280;58263;48.146;11.440;2023-06-10T07:59:42;95381.00;;;26.78;40.77
70684;BME280;58263;48.146;11.440;2023-06-10T08:02:09;95380.50;;;27.01;39.00
70684;BME280;58263;48.146;11.440;2023-06-10T08:04:34;95378.91;;;27.12;38.89
70684;BME280;58263;48.146;11.440;2023-06-10T08:07:00;95385.31;;;27.16;39.52
70684;BME280;58263;48.146;11.440;2023-06-10T08:09:25;95382.56;;;27.16;38.41
70684;BME280;58263;48.146;11.440;2023-06-10T08:11:51;95378.28;;;27.19;39.23
70684;BME280;58263;48.146;11.440;2023-06-10T08:14:16;95380.69;;;27.32;38.69
70684;BME280;58263;48.146;11.440;2023-06-10T08:16:43;95377.22;;;27.48;37.72
70684;BME280;58263;48.146;11.440;2023-06-10T08:19:08;95377.19;;;27.60;37.98
70684;BME280;58263;48.146;11.440;2023-06-10T08:21:34;95382.94;;;27.55;37.06
70684;BME280;58263;48.146;11.440;2023-06-10T08:24:01;95381.47;;;27.86;37.22
70684;BME280;58263;48.146;11.440;2023-06-10T08:26:26;95367.75;;;28.02;36.64
70684;BME280;58263;48.146;11.440;2023-06-10T08:28:52;95375.34;;;28.21;36.18
70684;BME280;58263;48.146;11.440;2023-06-10T08:31:17;95381.44;;;28.43;35.43
70684;BME280;58263;48.146;11.440;2023-06-10T08:33:42;95377.94;;;28.46;35.02
70684;BME280;58263;48.146;11.440;2023-06-10T08:36:08;95375.47;;;28.57;34.60
70684;BME280;58263;48.146;11.440;2023-06-10T08:38:33;95382.97;;;28.72;34.15
70684;BME280;58263;48.146;11.440;2023-06-10T08:40:59;95377.75;;;28.55;34.18
70684;BME280;58263;48.146;11.440;2023-06-10T08:44:16;95376.59;;;29.04;33.95
70684;BME280;58263;48.146;11.440;2023-06-10T08:46:38;95369.66;;;29.10;33.95
70684;BME280;58263;48.146;11.440;2023-06-10T08:49:06;95374.81;;;29.27;33.25
70684;BME280;58263;48.146;11.440;2023-06-10T08:51:35;95374.59;;;29.56;33.04
70684;BME280;58263;48.146;11.440;2023-06-10T08:54:05;95375.78;;;29.74;32.90
70684;BME280;58263;48.146;11.440;2023-06-10T08:56:35;95369.75;;;29.88;33.31
70684;BME280;58263;48.146;11.440;2023-06-10T08:59:04;95373.72;;;29.51;33.98
70684;BME280;58263;48.146;11.440;2023-06-10T09:01:30;95374.25;;;29.77;33.28
70684;BME280;58263;48.146;11.440;2023-06-10T09:03:57;95378.34;;;30.03;32.95
70684;BME280;58263;48.146;11.440;2023-06-10T09:06:23;95372.09;;;30.29;32.66
70684;BME280;58263;48.146;11.440;2023-06-10T09:08:50;95370.56;;;30.31;32.39
70684;BME280;58263;48.146;11.440;2023-06-10T09:11:15;95376.50;;;30.53;32.57
70684;BME280;58263;48.146;11.440;2023-06-10T09:13:41;95369.03;;;30.34;32.05
70684;BME280;58263;48.146;11.440;2023-06-10T09:16:06;95378.59;;;30.83;32.53
70684;BME280;58263;48.146;11.440;2023-06-10T09:18:31;95371.50;;;31.09;31.61
70684;BME280;58263;48.146;11.440;2023-06-10T09:20:57;95374.41;;;30.70;31.52
70684;BME280;58263;48.146;11.440;2023-06-10T09:23:22;95370.16;;;30.52;31.85
70684;BME280;58263;48.146;11.440;2023-06-10T09:25:56;95377.31;;;30.54;31.38
70684;BME280;58263;48.146;11.440;2023-06-10T09:28:21;95373.25;;;29.85;32.57
70684;BME280;58263;48.146;11.440;2023-06-10T09:30:46;95374.69;;;30.41;32.43
70684;BME280;58263;48.146;11.440;2023-06-10T09:33:13;95377.84;;;30.86;31.99
70684;BME280;58263;48.146;11.440;2023-06-10T09:39:04;95368.72;;;30.16;32.35
70684;BME280;58263;48.146;11.440;2023-06-10T09:41:34;95379.03;;;30.62;31.61
70684;BME280;58263;48.146;11.440;2023-06-10T09:44:01;95376.69;;;31.14;31.60
70684;BME280;58263;48.146;11.440;2023-06-10T09:46:31;95373.34;;;31.58;31.00
70684;BME280;58263;48.146;11.440;2023-06-10T09:48:58;95376.16;;;31.31;31.30
70684;BME280;58263;48.146;11.440;2023-06-10T09:51:23;95367.47;;;30.56;31.62
70684;BME280;58263;48.146;11.440;2023-06-10T09:53:51;95378.78;;;31.21;31.27
70684;BME280;58263;48.146;11.440;2023-06-10T09:56:16;95371.28;;;31.82;30.21
70684;BME280;58263;48.146;11.440;2023-06-10T09:58:42;95365.63;;;32.43;29.76
70684;BME280;58263;48.146;11.440;2023-06-10T10:01:10;95365.91;;;32.72;28.70
70684;BME280;58263;48.146;11.440;2023-06-10T10:03:43;95383.09;;;33.36;28.22
70684;BME280;58263;48.146;11.440;2023-06-10T10:06:11;95376.09;;;33.72;27.75
70684;BME280;58263;48.146;11.440;2023-06-10T10:08:36;95376.22;;;34.00;27.35
70684;BME280;58263;48.146;11.440;2023-06-10T10:11:02;95374.00;;;34.60;26.66
70684;BME280;58263;48.146;11.440;2023-06-10T10:13:28;95370.84;;;34.58;26.20
70684;BME280;58263;48.146;11.440;2023-06-10T10:15:56;95376.56;;;33.81;26.50
70684;BME280;58263;48.146;11.440;2023-06-10T10:18:28;95373.38;;;32.67;28.03
70684;BME280;58263;48.146;11.440;2023-06-10T10:20:57;95378.72;;;32.08;28.67
70684;BME280;58263;48.146;11.440;2023-06-10T10:23:28;95380.84;;;31.58;29.64
70684;BME280;58263;48.146;11.440;2023-06-10T10:25:55;95378.81;;;30.97;30.64
70684;BME280;58263;48.146;11.440;2023-06-10T10:28:24;95376.59;;;30.83;31.09
70684;BME280;58263;48.146;11.440;2023-06-10T10:30:59;95388.16;;;30.89;30.43
70684;BME280;58263;48.146;11.440;2023-06-10T10:33:48;95377.06;;;32.79;28.97
70684;BME280;58263;48.146;11.440;2023-06-10T10:36:18;95375.94;;;33.35;27.79
70684;BME280;58263;48.146;11.440;2023-06-10T10:38:45;95375.53;;;35.66;24.85
70684;BME280;58263;48.146;11.440;2023-06-10T10:41:13;95370.31;;;37.54;22.75
70684;BME280;58263;48.146;11.440;2023-06-10T10:43:39;95373.19;;;39.46;20.31
70684;BME280;58263;48.146;11.440;2023-06-10T10:46:13;95379.13;;;40.85;19.07
70684;BME280;58263;48.146;11.440;2023-06-10T10:48:39;95369.03;;;41.66;18.25
70684;BME280;58263;48.146;11.440;2023-06-10T10:51:06;95361.31;;;42.13;17.76
70684;BME280;58263;48.146;11.440;2023-06-10T10:53:32;95376.94;;;42.56;17.30
70684;BME280;58263;48.146;11.440;2023-06-10T10:56:07;95364.63;;;43.14;16.81
70684;BME280;58263;48.146;11.440;2023-06-10T10:58:33;95363.06;;;43.48;16.01
70684;BME280;58263;48.146;11.440;2023-06-10T11:00:59;95363.41;;;41.66;17.57
70684;BME280;58263;48.146;11.440;2023-06-10T11:03:29;95353.53;;;39.46;18.80
70684;BME280;58263;48.146;11.440;2023-06-10T11:05:58;95353.00;;;36.16;21.62
70684;BME280;58263;48.146;11.440;2023-06-10T11:11:38;95345.94;;;37.13;21.32
70684;BME280;58263;48.146;11.440;2023-06-10T11:14:26;95353.25;;;39.64;19.91
70684;BME280;58263;48.146;11.440;2023-06-10T11:16:56;95360.69;;;41.92;17.03
70684;BME280;58263;48.146;11.440;2023-06-10T11:19:32;95354.94;;;42.64;17.05
70684;BME280;58263;48.146;11.440;2023-06-10T11:22:06;95360.25;;;40.69;18.38
70684;BME280;58263;48.146;11.440;2023-06-10T11:24:32;95352.81;;;38.43;20.36
70684;BME280;58263;48.146;11.440;2023-06-10T11:27:16;95354.09;;;36.93;22.51
70684;BME280;58263;48.146;11.440;2023-06-10T11:32:37;95343.25;;;36.99;21.93
70684;BME280;58263;48.146;11.440;2023-06-10T11:35:05;95347.34;;;39.11;19.29
70684;BME280;58263;48.146;11.440;2023-06-10T11:37:31;95347.28;;;41.83;17.49
70684;BME280;58263;48.146;11.440;2023-06-10T11:39:57;95354.38;;;42.56;16.54
70684;BME280;58263;48.146;11.440;2023-06-10T11:42:23;95351.31;;;44.38;15.40
70684;BME280;58263;48.146;11.440;2023-06-10T11:44:50;95350.69;;;45.90;13.95
70684;BME280;58263;48.146;11.440;2023-06-10T11:47:16;95353.47;;;46.18;13.31
70684;BME280;58263;48.146;11.440;2023-06-10T11:49:42;95331.44;;;42.15;15.54
70684;BME280;58263;48.146;11.440;2023-06-10T11:52:07;95334.34;;;41.99;15.96
70684;BME280;58263;48.146;11.440;2023-06-10T11:54:33;95339.88;;;42.15;15.90
70684;BME280;58263;48.146;11.440;2023-06-10T11:56:59;95345.59;;;44.29;14.65
70684;BME280;58263;48.146;11.440;2023-06-10T11:59:29;95334.59;;;45.22;13.79
70684;BME280;58263;48.146;11.440;2023-06-10T12:01:55;95340.28;;;45.31;13.35
70684;BME280;58263;48.146;11.440;2023-06-10T12:04:20;95333.63;;;46.09;12.93
70684;BME280;58263;48.146;11.440;2023-06-10T12:06:51;95334.00;;;46.87;12.89
70684;BME280;58263;48.146;11.440;2023-06-10T12:09:22;95324.66;;;47.44;12.39
70684;BME280;58263;48.146;11.440;2023-06-10T12:12:08;95328.47;;;44.64;14.61
70684;BME280;58263;48.146;11.440;2023-06-10T12:14:54;95323.19;;;42.98;15.48
70684;BME280;58263;48.146;11.440;2023-06-10T12:17:21;95317.69;;;39.94;17.56
70684;BME280;58263;48.146;11.440;2023-06-10T12:19:48;95320.81;;;38.41;19.23
70684;BME280;58263;48.146;11.440;2023-06-10T12:22:14;95319.00;;;36.88;21.06
70684;BME280;58263;48.146;11.440;2023-06-10T12:24:59;95320.84;;;36.57;20.73
70684;BME280;58263;48.146;11.440;2023-06-10T12:27:25;95315.81;;;35.45;21.46
70684;BME280;58263;48.146;11.440;2023-06-10T12:29:51;95314.19;;;35.51;21.92
70684;BME280;58263;48.146;11.440;2023-06-10T12:32:19;95321.63;;;37.83;19.34
70684;BME280;58263;48.146;11.440;2023-06-10T12:34:45;95323.50;;;40.60;16.83
70684;BME280;58263;48.146;11.440;2023-06-10T12:37:12;95312.78;;;41.92;15.86
70684;BME280;58263;48.146;11.440;2023-06-10T12:39:40;95312.34;;;43.45;14.34
70684;BME280;58263;48.146;11.440;2023-06-10T12:42:06;95310.16;;;44.15;14.49
70684;BME280;58263;48.146;11.440;2023-06-10T12:44:35;95306.09;;;45.07;13.88
70684;BME280;58263;48.146;11.440;2023-06-10T12:47:11;95307.19;;;40.34;17.83
70684;BME280;58263;48.146;11.440;2023-06-10T12:49:38;95307.31;;;38.04;19.77
70684;BME280;58263;48.146;11.440;2023-06-10T12:52:04;95300.28;;;38.98;18.97
70684;BME280;58263;48.146;11.440;2023-06-10T12:54:29;95301.75;;;41.85;16.74
70684;BME280;58263;48.146;11.440;2023-06-10T12:56:55;95294.97;;;42.98;14.46
70684;BME280;58263;48.146;11.440;2023-06-10T12:59:20;95292.16;;;43.33;14.67